Latest Weather Observations for Minnipa RS

IDS60801

Issued at 9:32 pm CDT Wednesday 4 March 2015 (issued every 30 minutes, with the page automatically refreshed every 10 minutes)

About weather observations | Map of weather stations | Latest weather observations for SA | Other Formats
Station Details ID: 018195 Name: MINNIPA PIRSA Lat: -32.84 Lon: 135.15 Height: 165.0 m
Data from the previous 72 hours. | See also: Recent months at Minnipa RS
Date/Time
CDT
Temp
°C
App
Temp
°C
Dew
Point
Rel
Hum
%
Delta-T
°C
Wind Press
QNH
hPa
Press
MSL
hPa
Rain
since 9 am
mm
Dir
 
Spd
km/h
Gust
km/h
Spd
kts
Gust
kts
04/09:30pm 16.3 13.7 10.6 69 3.0 SSW 15 20 8 11 1022.4 - 0.0
04/09:00pm 16.8 12.8 10.4 66 3.4 SSW 22 30 12 16 1022.0 1021.5 0.0
04/08:30pm 17.1 13.3 9.8 62 3.9 SSW 20 30 11 16 1021.7 - 0.0
04/08:00pm 17.8 13.2 9.7 59 4.3 SSW 24 35 13 19 1021.5 - 0.0
04/07:30pm 19.1 14.7 9.0 52 5.3 S 22 30 12 16 1020.9 - 0.0
04/07:00pm 20.2 15.3 8.5 47 6.2 SSW 24 32 13 17 1020.7 - 0.0
04/06:30pm 21.4 16.5 8.3 43 6.9 SSW 24 32 13 17 1020.2 - 0.0
04/06:00pm 21.2 15.8 8.1 43 6.9 SSW 26 35 14 19 1020.0 1019.4 0.0
04/05:30pm 21.6 15.9 8.5 43 7.0 SSW 28 37 15 20 1020.0 - 0.0
04/05:00pm 22.8 17.4 7.8 38 7.9 SW 26 37 14 20 1019.9 - 0.0
04/04:30pm 23.1 17.5 5.5 32 8.9 SSW 24 33 13 18 1019.7 - 0.0
04/04:00pm 24.2 18.2 5.5 30 9.5 SSW 26 37 14 20 1019.7 - 0.0
04/03:30pm 24.0 17.7 5.8 31 9.3 SSW 28 39 15 21 1019.8 - 0.0
04/03:00pm 24.9 20.0 7.1 32 9.4 SSW 22 35 12 19 1019.9 1019.3 0.0
04/02:30pm 24.7 20.1 6.4 31 9.5 SSW 20 30 11 16 1019.9 - 0.0
04/02:00pm 24.2 19.8 6.5 32 9.2 S 19 28 10 15 1020.1 - 0.0
04/01:30pm 23.3 19.4 7.0 35 8.5 S 17 24 9 13 1020.2 - 0.0
04/01:00pm 22.3 19.5 8.4 41 7.4 S 13 19 7 10 1020.5 - 0.0
04/12:30pm 21.6 18.3 8.1 42 7.1 SSW 15 24 8 13 1021.1 - 0.0
04/12:00pm 20.1 17.0 8.8 48 6.0 SE 15 22 8 12 1021.4 1020.9 0.0
04/11:30am 20.7 17.5 9.9 50 5.9 SSE 17 24 9 13 1021.6 - 0.0
04/11:00am 18.9 15.6 9.4 54 5.0 SSE 17 24 9 13 1021.7 - 0.0
04/10:30am 18.8 15.2 10.6 59 4.5 SSE 20 28 11 15 1021.4 - 0.0
04/10:00am 17.8 14.2 10.7 63 3.8 SSE 20 26 11 14 1021.3 - 0.0
04/09:30am 17.2 13.8 10.6 65 3.5 SSE 19 24 10 13 1021.0 - 0.0
04/09:00am 16.6 13.3 10.9 69 3.1 SSE 19 24 10 13 1021.1 1020.6 0.0
04/08:30am 15.1 12.7 11.5 79 1.9 S 15 20 8 11 1020.9 - 0.0
04/08:00am 13.9 12.2 11.1 83 1.5 SSE 11 15 6 8 1020.5 - 0.0
04/07:30am 14.2 11.7 11.0 81 1.7 SSE 15 19 8 10 1020.0 - 0.0
04/07:00am 14.4 11.9 11.0 80 1.8 S 15 20 8 11 1020.1 - 0.0
04/06:30am 14.7 12.2 10.9 78 2.0 S 15 19 8 10 1019.6 - 0.0
04/06:00am 14.5 12.2 10.5 77 2.1 S 13 17 7 9 1019.5 1018.9 0.0
04/05:30am 14.7 12.7 10.3 75 2.3 SSE 11 17 6 9 1019.4 - 0.0
04/05:00am 14.9 12.8 9.9 72 2.6 SSE 11 15 6 8 1019.5 - 0.0
04/04:30am 15.2 12.8 10.0 71 2.7 SSE 13 17 7 9 1019.8 - 0.0
04/04:00am 15.7 13.2 9.6 67 3.2 SSE 13 19 7 10 1019.9 - 0.0
04/03:30am 16.0 12.7 9.4 65 3.4 SSE 17 22 9 12 1019.5 - 0.0
04/03:00am 16.3 12.6 9.3 63 3.6 SSE 19 26 10 14 1019.1 1018.5 0.0
04/02:30am 16.6 13.4 9.8 64 3.6 SSE 17 22 9 12 1019.7 - 0.0
04/02:00am 17.0 14.0 9.4 61 4.0 S 15 20 8 11 1020.4 - 0.0
04/01:30am 17.2 14.3 9.6 61 4.0 S 15 19 8 10 1020.6 - 0.0
04/01:00am 17.3 14.4 9.7 61 4.0 SSE 15 20 8 11 1020.2 - 0.0
04/12:30am 17.5 13.7 9.9 61 4.0 S 20 28 11 15 1020.0 - 0.0
04/12:00am 17.8 13.9 9.4 58 4.4 SSE 20 28 11 15 1019.7 1019.1 0.0
 
Date/Time
CDT
Temp
°C
App
Temp
°C
Dew
Point
Rel
Hum
%
Delta-T
°C
Wind Press
QNH
hPa
Press
MSL
hPa
Rain
since 9 am
mm
Dir
 
Spd
km/h
Gust
km/h
Spd
kts
Gust
kts
03/11:30pm 17.9 14.2 9.5 58 4.4 S 19 26 10 14 1020.4 - 0.0
03/11:00pm 18.3 14.9 9.1 55 4.8 S 17 24 9 13 1020.6 - 0.0
03/10:30pm 18.5 15.1 9.0 54 5.0 S 17 22 9 12 1020.4 - 0.0
03/10:00pm 18.9 15.9 9.1 53 5.2 S 15 22 8 12 1020.1 - 0.0
03/09:30pm 19.3 15.3 9.2 52 5.4 S 20 30 11 16 1019.5 - 0.0
03/09:00pm 19.5 15.2 9.4 52 5.4 S 22 30 12 16 1019.0 1018.4 0.0
03/08:30pm 20.2 16.3 9.5 50 5.7 S 20 28 11 15 1018.5 - 0.0
03/08:00pm 20.7 16.4 9.3 48 6.1 SSW 22 28 12 15 1018.5 - 0.0
03/07:30pm 21.4 17.2 9.6 47 6.4 SSW 22 30 12 16 1018.2 - 0.0
03/07:00pm 22.1 17.9 9.6 45 6.8 SSW 22 30 12 16 1017.7 - 0.0
03/06:30pm 22.5 18.0 10.0 45 6.9 S 24 33 13 18 1017.3 - 0.0
03/06:00pm 23.2 18.9 10.6 45 7.0 SSW 24 33 13 18 1017.1 1016.6 0.0
03/05:30pm 23.7 19.0 10.7 44 7.3 SW 26 32 14 17 1016.8 - 0.0
03/05:00pm 25.5 21.7 8.9 35 9.1 S 19 26 10 14 1016.8 - 0.0
03/04:30pm 25.9 22.8 8.8 34 9.3 S 15 22 8 12 1016.8 - 0.0
03/04:00pm 26.3 22.8 8.8 33 9.6 SSE 17 28 9 15 1017.1 - 0.0
03/03:30pm 25.9 22.1 7.5 31 9.8 SSE 17 32 9 17 1017.3 - 0.0
03/03:00pm 24.9 21.0 8.8 36 8.7 SE 19 30 10 16 1017.6 1017.0 0.0
03/02:30pm 24.7 21.7 9.4 38 8.4 SSE 15 20 8 11 1017.7 - 0.0
03/02:00pm 24.0 20.0 9.2 39 8.1 SSE 20 26 11 14 1017.9 - 0.0
03/01:30pm 23.9 20.4 10.2 42 7.6 SSE 19 26 10 14 1018.4 - 0.0
03/01:00pm 24.4 20.7 10.3 41 7.8 SE 20 28 11 15 1018.7 - 0.0
03/12:30pm 23.1 19.9 11.8 49 6.4 SSE 20 26 11 14 1019.1 - 0.0
03/12:00pm 21.4 18.2 11.4 53 5.6 SE 19 28 10 15 1019.5 1018.9 0.0
03/11:30am 20.7 17.6 12.1 58 4.8 SSE 20 24 11 13 1019.7 - 0.0
03/11:00am 20.6 17.9 12.8 61 4.5 SSE 19 24 10 13 1019.7 - 0.0
03/10:30am 19.8 16.9 13.0 65 3.9 SSE 20 28 11 15 1019.6 - 0.0
03/10:00am 19.1 16.0 13.5 70 3.2 SE 22 30 12 16 1019.4 - 0.0
03/09:30am 17.9 15.7 13.2 74 2.7 SSE 17 24 9 13 1019.4 - 0.0
03/09:00am 17.4 14.2 13.1 76 2.4 SSE 22 28 12 15 1018.9 1018.3 0.0
03/08:30am 16.7 14.0 12.8 78 2.2 SSE 19 22 10 12 1018.8 - 0.0
03/08:00am 16.5 14.1 12.8 79 2.1 SSE 17 24 9 13 1018.4 - 0.0
03/07:30am 16.3 14.7 12.7 79 2.0 SSE 13 17 7 9 1018.0 - 0.0
03/07:00am 16.4 14.7 12.6 78 2.1 SSE 13 17 7 9 1017.8 - 0.0
03/06:30am 16.6 13.8 12.6 77 2.2 SSE 19 26 10 14 1017.5 - 0.0
03/06:00am 16.7 14.3 12.7 77 2.2 SE 17 24 9 13 1017.6 1017.0 0.0
03/05:30am 16.8 14.0 12.5 76 2.4 SE 19 24 10 13 1016.9 - 0.0
03/05:00am 16.9 14.0 12.4 75 2.5 SE 19 24 10 13 1016.8 - 0.0
03/04:30am 16.9 14.0 12.2 74 2.6 SE 19 26 10 14 1016.6 - 0.0
03/04:00am 16.9 14.4 12.4 75 2.5 ESE 17 24 9 13 1016.3 - 0.0
03/03:30am 16.7 13.7 12.5 76 2.3 ESE 20 28 11 15 1015.9 - 0.0
03/03:00am 16.6 13.8 12.6 77 2.2 SE 19 26 10 14 1016.1 1015.6 0.0
03/02:30am 16.7 12.2 12.7 77 2.2 SE 28 35 15 19 1015.9 - 0.0
03/02:00am 16.9 13.2 12.8 77 2.3 SE 24 32 13 17 1016.2 - 0.0
03/01:30am 16.9 14.1 13.2 79 2.1 SSE 20 26 11 14 1016.7 - 0.0
03/01:00am 16.5 14.5 12.8 79 2.1 SSE 15 22 8 12 1016.9 - 0.0
03/12:30am 16.3 13.7 12.1 76 2.3 S 17 22 9 12 1017.0 - 0.0
03/12:00am 16.5 14.7 12.1 75 2.4 S 13 17 7 9 1017.0 1016.5 0.0
 
Date/Time
CDT
Temp
°C
App
Temp
°C
Dew
Point
Rel
Hum
%
Delta-T
°C
Wind Press
QNH
hPa
Press
MSL
hPa
Rain
since 9 am
mm
Dir
 
Spd
km/h
Gust
km/h
Spd
kts
Gust
kts
02/11:30pm 16.7 14.9 12.0 74 2.6 S 13 17 7 9 1017.5 - 0.0
02/11:00pm 16.9 16.1 11.8 72 2.8 S 7 9 4 5 1017.8 - 0.0
02/10:30pm 17.0 16.5 12.5 75 2.5 SSW 7 9 4 5 1017.9 - 0.0
02/10:00pm 16.8 16.3 12.5 76 2.4 S 7 9 4 5 1017.9 - 0.0
02/09:30pm 16.9 16.8 13.4 80 2.0 WSW 6 9 3 5 1017.9 - 0.0
02/09:00pm 17.1 16.8 12.6 75 2.5 S 6 9 3 5 1017.8 1017.2 0.0
02/08:30pm 17.6 15.3 11.8 69 3.2 S 15 20 8 11 1017.1 - 0.0
02/08:00pm 18.2 14.5 11.5 65 3.7 S 22 32 12 17 1016.5 - 0.0
02/07:30pm 19.3 15.6 12.6 65 3.8 S 24 33 13 18 1015.5 - 0.0
02/07:00pm 20.3 15.4 10.1 52 5.5 S 26 33 14 18 1015.5 - 0.0
02/06:30pm 21.4 15.9 9.0 45 6.6 S 28 33 15 18 1015.0 - 0.0
02/06:00pm 21.5 18.0 10.9 51 5.9 S 20 26 11 14 1014.8 1014.2 0.0
02/05:30pm 21.9 17.0 10.1 47 6.5 S 26 35 14 19 1014.2 - 0.0
02/05:00pm 22.6 17.4 10.1 45 6.9 S 28 37 15 20 1014.1 - 0.0
02/04:30pm 22.1 18.1 10.3 47 6.5 S 22 28 12 15 1013.6 - 0.0
02/04:00pm 22.0 18.3 11.4 51 5.9 SSW 22 33 12 18 1014.3 - 0.0
02/03:30pm 24.7 19.6 7.8 34 9.0 SSW 24 32 13 17 1014.1 - 0.0
02/03:00pm 26.2 21.5 5.2 26 10.8 SW 19 24 10 13 1014.2 1013.6 0.0
02/02:30pm 26.5 22.0 4.3 24 11.3 SSW 17 20 9 11 1014.0 - 0.0
02/02:00pm 26.5 23.1 6.0 27 10.7 WSW 13 17 7 9 1013.9 - 0.0
02/01:30pm 27.2 24.5 5.5 25 11.3 W 9 19 5 10 1014.0 - 0.0
02/01:00pm 25.4 23.1 7.5 32 9.5 S 9 17 5 9 1014.6 - 0.0
02/12:30pm 24.5 23.0 9.3 38 8.3 S 7 13 4 7 1015.1 - 0.0
02/12:00pm 23.2 21.7 10.6 45 7.0 S 9 17 5 9 1015.5 1014.9 0.0
02/11:30am 21.8 20.5 10.0 47 6.4 SSE 7 11 4 6 1015.5 - 0.0
02/11:00am 20.7 18.5 10.8 53 5.5 ESE 13 17 7 9 1015.1 - 0.0
02/10:30am 20.0 17.9 11.2 57 4.9 SE 13 19 7 10 1014.8 - 0.0
02/10:00am 19.1 16.8 11.7 62 4.1 ESE 15 20 8 11 1014.6 - 0.0
02/09:30am 18.2 16.0 12.0 67 3.4 ESE 15 20 8 11 1014.8 - 0.0
02/09:00am 17.3 14.1 12.0 71 2.9 E 20 26 11 14 1014.5 1013.9 0.0
02/08:30am 16.7 12.8 12.0 74 2.6 E 24 30 13 16 1014.4 - 0.0
02/08:00am 16.1 12.5 11.9 76 2.3 E 22 32 12 17 1014.2 - 0.0
02/07:30am 15.8 12.7 11.6 76 2.3 E 19 24 10 13 1014.5 - 0.0
02/07:00am 15.7 12.6 11.7 77 2.2 E 19 24 10 13 1014.5 - 0.0
02/06:30am 15.5 12.2 11.5 77 2.2 E 20 26 11 14 1014.2 - 0.0
02/06:00am 15.4 12.0 11.4 77 2.2 E 20 26 11 14 1014.2 1013.6 0.0
02/05:30am 15.5 12.4 11.5 77 2.2 E 19 22 10 12 1014.4 - 0.0
02/05:00am 15.0 12.6 11.4 79 1.9 ESE 15 22 8 12 1014.4 - 0.0
02/04:30am 14.1 11.9 10.9 81 1.7 ESE 13 17 7 9 1014.6 - 0.0
02/04:00am 14.0 12.2 11.0 82 1.6 SE 11 15 6 8 1014.7 - 0.0
02/03:30am 14.1 11.9 10.9 81 1.7 SE 13 15 7 8 1014.7 - 0.0
02/03:00am 14.3 11.8 11.1 81 1.7 ESE 15 19 8 10 1014.8 1014.2 0.0
02/02:30am 14.4 11.9 11.2 81 1.7 SE 15 20 8 11 1014.9 - 0.0
02/02:00am 14.6 11.4 11.4 81 1.7 ESE 19 24 10 13 1014.9 - 0.0
02/01:30am 15.0 11.3 11.4 79 1.9 ESE 22 28 12 15 1015.0 - 0.0
02/01:00am 15.5 11.8 11.5 77 2.2 ESE 22 33 12 18 1015.3 - 0.0
02/12:30am 15.9 12.2 11.5 75 2.4 ESE 22 30 12 16 1015.6 - 0.0
02/12:00am 16.2 11.6 10.9 71 2.9 ESE 26 35 14 19 1015.2 1014.6 0.0
 
Date/Time
CDT
Temp
°C
App
Temp
°C
Dew
Point
Rel
Hum
%
Delta-T
°C
Wind Press
QNH
hPa
Press
MSL
hPa
Rain
since 9 am
mm
Dir
 
Spd
km/h
Gust
km/h
Spd
kts
Gust
kts
01/11:30pm 16.6 11.9 10.5 67 3.3 ESE 26 39 14 21 1015.8 - 0.0
01/11:00pm 17.3 12.0 10.0 62 3.9 ESE 28 39 15 21 1016.0 - 0.0
01/10:30pm 18.1 12.9 8.9 55 4.8 SE 26 39 14 21 1016.3 - 0.0
01/10:00pm 19.0 13.6 8.1 49 5.7 ESE 26 35 14 19 1016.2 - 0.0

Other Formats:

Comma delimited format used in spreadsheet applications
http://www.bom.gov.au/fwo/IDS60801/IDS60801.95662.axf

JavaScript Object Notation format (JSON) in row-major order
http://www.bom.gov.au/fwo/IDS60801/IDS60801.95662.json